Terminal Aerodrome Forecast
Issued by NWS

Home | Current Version | Previous Version | Text Only | Print | Product List | Glossary On
Versions: 1 2 3 4 5 6 7 8 9 10 11 12 13 14 15 16 17 18 19
000
FTUS45 KLKN 240525
TAFEKO
TAF
KEKO 240525Z 2406/2506 VRB05KT P6SM SCT060 BKN200
     FM241800 24009KT P6SM VCSH OVC040
     FM242000 24017G25KT 4SM -SHSN OVC030
      TEMPO 2421/2424 3/4SM -SHSN BLSN BR OVC015
     FM250200 26015G25KT P6SM VCSH BKN050=

USA.gov is the U.S. government's official web portal to all federal, state and local government web resources and services.